Blue Horizons Flying Club, Inc.

Radar AviationWeather DUATS TFRs Wunderground Accuweather Weather.com

alt : Radar

TAFs

KCLE 260252Z 2603/2706 28012G20KT P6SM SKC
   FM260600 29010KT P6SM SKC
KDTW 260215Z 2602/2706 27009KT P6SM SKC
   FM261600 30012KT P6SM SKC
   FM270000 24006KT P6SM SKC
KJXN 252340Z 2600/2624 29011KT P6SM SKC
KFDY 252324Z 2600/2624 27015G25KT P6SM SKC
   FM260200 28010KT P6SM SKC
KTOL 252324Z 2600/2624 28015G25KT P6SM SKC
   FM260200 29010KT P6SM SKC
KFWA 252320Z 2600/2624 28006KT P6SM SKC

METARs

KDUH 260415Z AUTO 00000KT 10SM CLR 11/00 A2986 RMK AO2
KJXN 260356Z 30009KT 10SM CLR 11/01 A2986 RMK AO2 SLP113 T01060011
KFWA 260354Z 30006KT 10SM CLR 13/02 A2992 RMK AO2 SLP129 T01280017
KDTW 260353Z 25008KT 10SM CLR 11/01 A2982 RMK AO2 SLP098 T01110006
KFDY 260353Z AUTO 30006KT 10SM CLR 10/02 A2987 RMK AO2 SLP110 T01000017
KTDZ 260353Z AUTO 27009KT 10SM CLR 10/01 A2986 RMK AO2 SLP110 T01000006 TSNO
KTOL 260352Z 25008KT 10SM CLR 10/01 A2986 RMK AO2 SLP112 T01000006
KCLE 260351Z 29012G19KT 10SM CLR 13/02 A2983 RMK AO2 SLP100 T01330022

alt : Satellite

alt : TFRs